Time,TemperatureF,DewpointF,PressureIn,WindDirection,WindDirectionDegrees,WindSpeedMPH,WindSpeedGustMPH,Humidity,HourlyPrecipIn,Conditions,Clouds,dailyrainin,SoftwareType,DateUTC
2013-03-26 00:00:00,25.0,20.0,-100.00,SSW,200,5.0,7.0,80,-99.99,,,-99.99,,2013-03-26 06:00:00,
2013-03-26 00:32:00,25.0,20.0,-100.00,SSW,200,5.0,7.0,80,-99.99,,,-99.99,,2013-03-26 06:32:00,
2013-03-26 00:43:00,25.0,20.0,-100.00,SSW,200,5.0,7.0,80,-99.99,,,-99.99,,2013-03-26 06:43:00,
2013-03-26 00:52:00,25.0,20.0,-100.00,SSW,200,5.0,7.0,80,-99.99,,,-99.99,,2013-03-26 06:52:00,
2013-03-26 01:00:00,25.0,18.0,-100.00,South,179,5.0,8.0,73,-99.99,,,-99.99,,2013-03-26 07:00:00,
2013-03-26 01:33:00,25.0,18.0,-100.00,South,179,5.0,8.0,73,-99.99,,,-99.99,,2013-03-26 07:33:00,
2013-03-26 01:43:00,25.0,18.0,-100.00,South,179,5.0,8.0,73,-99.99,,,-99.99,,2013-03-26 07:43:00,
2013-03-26 01:52:00,25.0,18.0,-100.00,South,179,5.0,8.0,73,-99.99,,,-99.99,,2013-03-26 07:52:00,
2013-03-26 02:00:00,25.0,18.0,-100.00,SW,236,6.0,8.0,73,-99.99,,,-99.99,,2013-03-26 08:00:00,
2013-03-26 02:32:00,25.0,18.0,-100.00,SW,236,6.0,8.0,73,-99.99,,,-99.99,,2013-03-26 08:32:00,
2013-03-26 02:42:00,25.0,18.0,-100.00,SW,236,6.0,8.0,73,-99.99,,,-99.99,,2013-03-26 08:42:00,
2013-03-26 02:52:00,25.0,18.0,-100.00,SW,236,6.0,8.0,73,-99.99,,,-99.99,,2013-03-26 08:52:00,
2013-03-26 03:00:00,24.0,18.0,-100.00,SW,224,5.0,7.0,76,-99.99,,,-99.99,,2013-03-26 09:00:00,
2013-03-26 03:33:00,24.0,18.0,-100.00,SW,224,5.0,7.0,76,-99.99,,,-99.99,,2013-03-26 09:33:00,
2013-03-26 03:43:00,24.0,18.0,-100.00,SW,224,5.0,7.0,76,-99.99,,,-99.99,,2013-03-26 09:43:00,
2013-03-26 03:52:00,24.0,18.0,-100.00,SW,224,5.0,7.0,76,-99.99,,,-99.99,,2013-03-26 09:52:00,
2013-03-26 04:00:00,24.0,18.0,-100.00,ESE,120,4.0,5.0,77,-99.99,,,-99.99,,2013-03-26 10:00:00,
2013-03-26 04:33:00,24.0,18.0,-100.00,ESE,120,4.0,5.0,77,-99.99,,,-99.99,,2013-03-26 10:33:00,
2013-03-26 04:43:00,24.0,18.0,-100.00,ESE,120,4.0,5.0,77,-99.99,,,-99.99,,2013-03-26 10:43:00,
2013-03-26 04:53:00,24.0,18.0,-100.00,ESE,120,4.0,5.0,77,-99.99,,,-99.99,,2013-03-26 10:53:00,
2013-03-26 05:00:00,24.0,18.0,-100.00,East,90,4.0,5.0,76,-99.99,,,-99.99,,2013-03-26 11:00:00,
2013-03-26 05:33:00,24.0,18.0,-100.00,East,90,4.0,5.0,76,-99.99,,,-99.99,,2013-03-26 11:33:00,
2013-03-26 05:43:00,24.0,18.0,-100.00,East,90,4.0,5.0,76,-99.99,,,-99.99,,2013-03-26 11:43:00,
2013-03-26 05:52:00,24.0,18.0,-100.00,East,90,4.0,5.0,76,-99.99,,,-99.99,,2013-03-26 11:52:00,
2013-03-26 06:00:00,26.0,22.0,-100.00,WNW,288,3.0,6.0,84,-99.99,,,-99.99,,2013-03-26 12:00:00,
2013-03-26 06:32:00,26.0,22.0,-100.00,WNW,288,3.0,6.0,84,-99.99,,,-99.99,,2013-03-26 12:32:00,
2013-03-26 06:43:00,26.0,22.0,-100.00,WNW,288,3.0,6.0,84,-99.99,,,-99.99,,2013-03-26 12:43:00,
2013-03-26 06:52:00,26.0,22.0,-100.00,WNW,288,3.0,6.0,84,-99.99,,,-99.99,,2013-03-26 12:52:00,
2013-03-26 07:00:00,27.0,20.0,-100.00,NNW,337,4.0,6.0,72,-99.99,,,-99.99,,2013-03-26 13:00:00,
2013-03-26 07:32:00,27.0,20.0,-100.00,NNW,337,4.0,6.0,72,-99.99,,,-99.99,,2013-03-26 13:32:00,
2013-03-26 07:42:00,27.0,20.0,-100.00,NNW,337,4.0,6.0,72,-99.99,,,-99.99,,2013-03-26 13:42:00,
2013-03-26 07:52:00,27.0,20.0,-100.00,NNW,337,4.0,6.0,72,-99.99,,,-99.99,,2013-03-26 13:52:00,
2013-03-26 08:00:00,27.0,22.0,-100.00,NNW,337,5.0,8.0,80,-99.99,,,-99.99,,2013-03-26 14:00:00,
2013-03-26 08:33:00,27.0,22.0,-100.00,NNW,337,5.0,8.0,80,-99.99,,,-99.99,,2013-03-26 14:33:00,
2013-03-26 08:42:00,27.0,22.0,-100.00,NNW,337,5.0,8.0,80,-99.99,,,-99.99,,2013-03-26 14:42:00,
2013-03-26 08:52:00,27.0,22.0,-100.00,NNW,337,5.0,8.0,80,-99.99,,,-99.99,,2013-03-26 14:52:00,
2013-03-26 09:00:00,30.0,20.0,-100.00,ENE,61,3.0,4.0,66,-99.99,,,-99.99,,2013-03-26 15:00:00,
2013-03-26 09:33:00,30.0,20.0,-100.00,ENE,61,3.0,4.0,66,-99.99,,,-99.99,,2013-03-26 15:33:00,
2013-03-26 09:43:00,30.0,20.0,-100.00,ENE,61,3.0,4.0,66,-99.99,,,-99.99,,2013-03-26 15:43:00,
2013-03-26 09:52:00,30.0,20.0,-100.00,ENE,61,3.0,4.0,66,-99.99,,,-99.99,,2013-03-26 15:52:00,
2013-03-26 11:00:00,35.0,23.0,-100.00,SSW,203,3.0,6.0,61,-99.99,,,-99.99,,2013-03-26 17:00:00,
2013-03-26 11:33:00,35.0,23.0,-100.00,SSW,203,3.0,6.0,61,-99.99,,,-99.99,,2013-03-26 17:33:00,
2013-03-26 11:42:00,35.0,23.0,-100.00,SSW,203,3.0,6.0,61,-99.99,,,-99.99,,2013-03-26 17:42:00,
2013-03-26 11:53:00,35.0,23.0,-100.00,SSW,203,3.0,6.0,61,-99.99,,,-99.99,,2013-03-26 17:53:00,
2013-03-26 13:00:00,37.0,23.0,-100.00,WSW,253,3.0,5.0,57,-99.99,,,-99.99,,2013-03-26 19:00:00,
2013-03-26 13:33:00,37.0,23.0,-100.00,WSW,253,3.0,5.0,57,-99.99,,,-99.99,,2013-03-26 19:33:00,
2013-03-26 13:42:00,37.0,23.0,-100.00,WSW,253,3.0,5.0,57,-99.99,,,-99.99,,2013-03-26 19:42:00,
2013-03-26 13:53:00,37.0,23.0,-100.00,WSW,253,3.0,5.0,57,-99.99,,,-99.99,,2013-03-26 19:53:00,
2013-03-26 14:00:00,36.0,25.0,-100.00,WSW,254,4.0,7.0,61,-99.99,,,-99.99,,2013-03-26 20:00:00,
2013-03-26 14:32:00,36.0,25.0,-100.00,WSW,254,4.0,7.0,61,-99.99,,,-99.99,,2013-03-26 20:32:00,
2013-03-26 14:43:00,36.0,25.0,-100.00,WSW,254,4.0,7.0,61,-99.99,,,-99.99,,2013-03-26 20:43:00,
2013-03-26 14:52:00,36.0,25.0,-100.00,WSW,254,4.0,7.0,61,-99.99,,,-99.99,,2013-03-26 20:52:00,
2013-03-26 15:00:00,35.0,25.0,-100.00,WSW,250,3.0,7.0,64,-99.99,,,-99.99,,2013-03-26 21:00:00,
2013-03-26 15:33:00,35.0,25.0,-100.00,WSW,250,3.0,7.0,64,-99.99,,,-99.99,,2013-03-26 21:33:00,
2013-03-26 15:43:00,35.0,25.0,-100.00,WSW,250,3.0,7.0,64,-99.99,,,-99.99,,2013-03-26 21:43:00,
2013-03-26 15:52:00,35.0,25.0,-100.00,WSW,250,3.0,7.0,64,-99.99,,,-99.99,,2013-03-26 21:52:00,
2013-03-26 16:00:00,33.0,23.0,-100.00,West,276,4.0,8.0,65,-99.99,,,-99.99,,2013-03-26 22:00:00,
2013-03-26 16:33:00,33.0,23.0,-100.00,West,276,4.0,8.0,65,-99.99,,,-99.99,,2013-03-26 22:33:00,
2013-03-26 16:42:00,33.0,23.0,-100.00,West,276,4.0,8.0,65,-99.99,,,-99.99,,2013-03-26 22:42:00,
2013-03-26 16:52:00,33.0,23.0,-100.00,West,276,4.0,8.0,65,-99.99,,,-99.99,,2013-03-26 22:52:00,
2013-03-26 17:32:00,33.0,25.0,-100.00,WSW,255,5.0,8.0,72,-99.99,,,-99.99,,2013-03-26 23:32:00,
2013-03-26 17:43:00,33.0,25.0,-100.00,WSW,255,5.0,8.0,72,-99.99,,,-99.99,,2013-03-26 23:43:00,
2013-03-26 17:52:00,33.0,25.0,-100.00,WSW,255,5.0,8.0,72,-99.99,,,-99.99,,2013-03-26 23:52:00,
2013-03-26 19:00:00,31.0,25.0,-100.00,West,276,6.0,7.0,77,-99.99,,,-99.99,,2013-03-27 01:00:00,
2013-03-26 19:33:00,31.0,25.0,-100.00,West,276,6.0,7.0,77,-99.99,,,-99.99,,2013-03-27 01:33:00,
2013-03-26 19:42:00,31.0,25.0,-100.00,West,276,6.0,7.0,77,-99.99,,,-99.99,,2013-03-27 01:42:00,
2013-03-26 19:53:00,31.0,25.0,-100.00,West,276,6.0,7.0,77,-99.99,,,-99.99,,2013-03-27 01:53:00,
2013-03-26 20:00:00,30.0,24.0,-100.00,WNW,289,5.0,7.0,76,-99.99,,,-99.99,,2013-03-27 02:00:00,
2013-03-26 20:32:00,30.0,24.0,-100.00,WNW,289,5.0,7.0,76,-99.99,,,-99.99,,2013-03-27 02:32:00,
2013-03-26 20:42:00,30.0,24.0,-100.00,WNW,289,5.0,7.0,76,-99.99,,,-99.99,,2013-03-27 02:42:00,
2013-03-26 20:52:00,30.0,24.0,-100.00,WNW,289,5.0,7.0,76,-99.99,,,-99.99,,2013-03-27 02:52:00,
2013-03-26 21:00:00,30.0,21.0,-100.00,NW,317,4.0,5.0,68,-99.99,,,-99.99,,2013-03-27 03:00:00,
2013-03-26 21:33:00,30.0,21.0,-100.00,NW,317,4.0,5.0,68,-99.99,,,-99.99,,2013-03-27 03:33:00,
2013-03-26 21:42:00,30.0,21.0,-100.00,NW,317,4.0,5.0,68,-99.99,,,-99.99,,2013-03-27 03:42:00,
2013-03-26 21:53:00,30.0,21.0,-100.00,NW,317,4.0,5.0,68,-99.99,,,-99.99,,2013-03-27 03:53:00,
2013-03-26 22:00:00,31.0,23.0,-100.00,North,4,3.0,5.0,73,-99.99,,,-99.99,,2013-03-27 04:00:00,
2013-03-26 22:33:00,31.0,23.0,-100.00,North,4,3.0,5.0,73,-99.99,,,-99.99,,2013-03-27 04:33:00,
2013-03-26 22:43:00,31.0,23.0,-100.00,North,4,3.0,5.0,73,-99.99,,,-99.99,,2013-03-27 04:43:00,
2013-03-26 22:52:00,31.0,23.0,-100.00,North,4,3.0,5.0,73,-99.99,,,-99.99,,2013-03-27 04:52:00,
2013-03-26 23:00:00,30.0,23.0,-100.00,NNW,341,1.0,3.0,75,-99.99,,,-99.99,,2013-03-27 05:00:00,
2013-03-26 23:33:00,30.0,23.0,-100.00,NNW,341,1.0,3.0,75,-99.99,,,-99.99,,2013-03-27 05:33:00,
2013-03-26 23:42:00,30.0,23.0,-100.00,NNW,341,1.0,3.0,75,-99.99,,,-99.99,,2013-03-27 05:42:00,
2013-03-26 23:52:00,30.0,23.0,-100.00,NNW,341,1.0,3.0,75,-99.99,,,-99.99,,2013-03-27 05:52:00,